• Join FlightAware (Why Join?)
  • Login
  • US Flag 
12:15AM EDT


 

Airport Tracker/Info


-or-


 

Live Flight TrackerFlight Track Log ✈ JBU56 ✈ 23-Nov-2013 ✈ KIAD - KBOS

Flight Track Log - Related Links

Times and Time Zones

All times are in EST time to prevent confusion due to time zone crossing. See the JBU56 flight status page for this flight to view local times or setup timezone preferences in your user account.

Time Position Orientation Groundspeed Altitude Reporting Facility
EST Latitude Longitude Course Direction KTS MPH feet Rate Location/Type
09:56AM 38.9667 -77.5000 52° Northeast 177 204 2,600  Level Potomac TRACON
09:57AM 39.0167 -77.5000 360° North 207 238 5,900 3,240 Climbing Potomac TRACON
09:58AM 39.0833 -77.4833 11° North 225 259 9,200 2,100 Climbing Potomac TRACON
09:59AM 39.1333 -77.4500 27° Northeast 278 320 10,000 420 Climbing Potomac TRACON
10:00AM 39.1500 -77.3333 80° East 384 442 10,000 840 Level Potomac TRACON
10:01AM 39.1167 -77.2000 108° East 407 468 11,700 1,980 Climbing Potomac TRACON
10:02AM 39.3282 -76.8029 52° Northeast  Level Estimated
10:04AM 39.1067 -76.8594 92° East 443 510 17,000  Level Washington Center
10:05AM 39.1189 -76.6886 85° East 460 529 18,500 960 Climbing Washington Center
10:06AM 39.1311 -76.4772 86° East 480 552 19,000 240 Climbing Washington Center
10:07AM 39.1447 -76.2956 84° East 501 577 19,000  Level Washington Center
10:08AM 39.1622 -76.1350 82° East 501 577 19,100 900 Climbing Washington Center
10:09AM 39.1836 -75.9558 81° East 506 582 20,900 1,680 Climbing Washington Center
10:10AM 39.2550 -75.7981 60° Northeast 500 575 22,500 1,380 Climbing Washington Center
10:11AM 39.3572 -75.6667 45° Northeast 489 563 23,700 1,320 Climbing Washington Center
10:12AM 39.4614 -75.5325 45° Northeast 505 581 25,200 1,800 Climbing Washington Center
10:13AM 39.5656 -75.3978 45° Northeast 516 594 27,300 1,380 Climbing Washington Center
10:15AM 39.7928 -75.0828 47° Northeast 520 598 29,700 1,140 Climbing New York Center
10:16AM 39.8961 -74.9350 48° Northeast 533 613 31,000 600 Climbing New York Center
10:17AM 40.0125 -74.7683 48° Northeast 551 634 31,000  Level New York Center
10:18AM 40.1067 -74.6328 48° Northeast 551 634 31,000  Level New York Center
10:19AM 40.2222 -74.4706 47° Northeast 551 634 31,000  Level New York Center
10:20AM 40.3231 -74.3100 50° Northeast 556 640 31,000  Level New York Center
10:21AM 40.4236 -74.1517 50° Northeast 562 647 31,000  Level New York Center
10:22AM 40.5219 -73.9900 51° Northeast 562 647 31,000 -660 Level New York Center
10:24AM 40.7447 -73.6314 51° Northeast 560 644 29,000 -1,260 Descending Boston Center
10:25AM 40.8461 -73.4683 51° Northeast 555 639 27,000 -1,020 Descending Boston Center
10:26AM 40.9414 -73.3264 48° Northeast 542 624 27,000 -360 Level Boston Center
10:27AM 41.0406 -73.1775 49° Northeast 542 624 26,300 -1,320 Descending Boston Center
10:28AM 41.1397 -73.0283 49° Northeast 542 624 24,400 -1,620 Descending Boston Center
10:29AM 41.2311 -72.8756 51° Northeast 534 615 23,100 -720 Descending Boston Center
10:30AM 41.3033 -72.6725 65° Northeast 549 632 23,000 -60 Descending Boston Center
10:31AM 41.3678 -72.4864 65° Northeast 551 634 23,000  Level Boston Center
10:32AM 41.4314 -72.3003 65° Northeast 551 634 23,000 -840 Level Boston Center
10:33AM 41.4939 -72.1144 66° East 550 633 21,400 -1,740 Descending Boston Center
10:34AM 41.5561 -71.9317 65° Northeast 524 603 19,500 -1,860 Descending Boston Center
10:35AM 41.6167 -71.7544 65° Northeast 493 567 17,700 -1,740 Descending Boston Center
10:36AM 41.6783 -71.6006 62° Northeast 476 548 16,000 -1,680 Descending Boston Center
10:37AM 41.7514 -71.4717 53° Northeast 453 521 14,300 -1,440 Descending Boston Center
10:38AM 41.8289 -71.3347 53° Northeast 428 493 13,100 -1,920 Descending Boston Center
10:39AM 41.8964 -71.2225 51° Northeast 390 449 10,500 -1,560 Descending Boston Center
10:40AM 41.9583 -71.1231 50° Northeast 349 402 10,000 -1,080 Descending Boston Center
10:41AM 42.0167 -71.0500 43° Northeast 285 328 8,500 -1,680 Descending KA90
10:42AM 42.0833 -70.9833 37° Northeast 276 318 6,900 -1,440 Descending KA90
10:43AM 42.1333 -70.9333 37° Northeast 222 255 5,700 -1,500 Descending KA90
10:44AM 42.1833 -70.9000 26° Northeast 222 255 4,000 -1,380 Descending KA90
10:45AM 42.2333 -70.8500 37° Northeast 203 234 3,000 -720 Descending KA90
10:46AM 42.2667 -70.8833 324° Northwest 159 183 2,500 -660 Descending KA90
10:47AM 42.3000 -70.9167 324° Northwest 159 183 1,700 -900 Descending KA90
10:48AM 42.3333 -70.9500 324° Northwest 122 140 900 -840 Descending KA90
10:49AM 42.3500 -70.9833 304° West 125 144 200 -720 Descending KA90